Meadowlands, MN (55765)

8:33 PM CDT on August 29, 2014 (GMT -0500)
Hibbing, MN | Change Station
CLOSE
Current Station
Personal Weather Station
Location: Hibbing, MN
Elevation: 1312 ft
Nearby Weather Stations

Elev 1312 ft 47.36 °N, 92.82 °W | Updated 16 minutes ago

Overcast
Overcast
65.5 °F
Feels Like 65.5 °F
N
0.0
Wind Variable Wind from SSE
Gusts 0.0 mph

Today
High -- | Low -- °F
--% Chance of Precip.
Yesterday
High -- | Low -- °F
Precip. -- in
6:26 AM 7:56 PM
Waxing Crescent, 18% visible
Pressure 29.80 in
Visibility 9.0 miles
Clouds Overcast 1400 ft
Dew Point 38 °F
Humidity 37%
Rainfall 0.55 in
Snow Depth Not available.
UV 0 out of 12
Pollen 3.10 out of 12
Air Quality Not available.
Flu Activity Not available.
SPECI KHIB 300119Z AUTO 00000KT 9SM OVC014 18/17 A2980 RMK AO2 T01830172

More Conditions Fewer Conditions

Pressure 29.80 in
Visibility 9.0 miles
Clouds Overcast 1400 ft
Dew Point 38 °F
Humidity 37%
Rainfall 0.55 in
Snow Depth Not available.
UV 0 out of 12
Pollen 3.10 out of 12
Air Quality Not available.
Flu Activity Not available.
SPECI KHIB 300119Z AUTO 00000KT 9SM OVC014 18/17 A2980 RMK AO2 T01830172

More Conditions Fewer Conditions

10-Day Weather Forecast

Almanac

Astronomy

Aug. 29, 2014 Rise Set
Actual Time 6:26 AM CDT 7:56 PM CDT
Civil Twilight 5:54 AM CDT 8:28 PM CDT
Nautical Twilight 5:15 AM CDT 9:07 PM CDT
Astronomical Twilight 4:34 AM CDT 9:48 PM CDT
Moon 10:34 AM CDT (8/29) 9:35 PM CDT (8/29)
Length of Visible Light 14h 33m
Length of Day
13h 30m
Tomorrow will be 3m 13s shorter.
Waxing Crescent, 18% of the Moon is Illuminated
Today
Waxing Crescent
Sep 2
First Quarter
Sep 8
Full
Sep 15
Last Quarter
Sep 24
New

Today's Extremes

State Highs State Lows

Community

WunderPhotos

Upload Photos

1,748,403 photos uploaded!

Nearby

Snow Depth

Station Depth Elevation
No new snow has been reported.

Earthquake Activity

City Distance Mag. Time & Date
No recent earthquake activity has been reported nearby.
Minimum magnitude displayed is 2.5.

Coastal Water Temperatures

Place Temperature
No Stations Reporting

Nearby Weather Stations